createdAt,value
2019-04-14T00:05:10.342Z,9.47
2019-04-14T00:07:38.930Z,7.63
2019-04-14T00:10:09.576Z,6.30
2019-04-14T00:12:38.407Z,8.70
2019-04-14T00:15:21.133Z,9.87
2019-04-14T00:17:39.321Z,37.13
2019-04-14T00:20:09.618Z,6.10
2019-04-14T00:46:02.699Z,2.67
2019-04-14T00:48:32.116Z,5.77
2019-04-14T00:51:00.675Z,8.03
2019-04-14T00:53:29.527Z,11.70
2019-04-14T00:55:58.152Z,8.17
2019-04-14T00:58:27.872Z,6.50
2019-04-14T01:00:56.560Z,10.13
2019-04-14T01:03:25.045Z,22.50
2019-04-14T01:05:54.650Z,19.17
2019-04-14T01:08:23.255Z,14.33
2019-04-14T01:10:52.000Z,17.40
2019-04-14T01:13:20.617Z,8.50
2019-04-14T01:15:58.742Z,21.37
2019-04-14T01:18:19.429Z,16.80
2019-04-14T01:20:49.151Z,13.30
2019-04-14T01:23:17.724Z,27.37
2019-04-14T01:25:46.164Z,13.60
2019-04-14T01:28:15.745Z,8.33
2019-04-14T01:30:44.400Z,7.20
2019-04-14T01:33:14.030Z,17.67
2019-04-14T01:35:42.702Z,17.73
2019-04-14T01:38:12.450Z,11.53
2019-04-14T01:40:42.338Z,26.23
2019-04-14T01:43:12.308Z,7.83
2019-04-14T01:45:40.935Z,6.57
2019-04-14T01:48:10.482Z,19.23
2019-04-14T01:50:43.638Z,8.67
2019-04-14T01:53:14.015Z,10.33
2019-04-14T01:56:01.272Z,10.13
2019-04-14T01:58:31.787Z,11.80
2019-04-14T02:01:06.177Z,7.57
2019-04-14T02:03:34.831Z,7.97
2019-04-14T02:06:03.316Z,6.80
2019-04-14T02:08:32.887Z,18.57
2019-04-14T02:11:01.514Z,13.03
2019-04-14T02:13:31.114Z,9.10
2019-04-14T02:16:13.107Z,12.43
2019-04-14T02:18:29.870Z,8.30
2019-04-14T02:20:58.350Z,7.33
2019-04-14T02:23:27.983Z,18.97
2019-04-14T02:25:57.845Z,8.20
2019-04-14T02:28:26.547Z,10.50
2019-04-14T02:31:03.251Z,7.57
2019-04-14T02:33:51.225Z,5.33
2019-04-14T02:41:33.536Z,12.67
2019-04-14T02:46:26.358Z,8.27
2019-04-14T02:48:59.010Z,16.70
2019-04-14T02:53:57.619Z,10.50
2019-04-14T02:56:31.009Z,9.23
2019-04-14T03:01:31.560Z,14.93
2019-04-14T03:03:49.291Z,9.27
2019-04-14T03:06:25.682Z,11.20
2019-04-14T03:09:01.218Z,10.40
2019-04-14T03:11:28.509Z,14.23
2019-04-14T03:13:58.547Z,15.03
2019-04-14T03:16:29.797Z,10.50
2019-04-14T03:19:01.576Z,7.67
2019-04-14T03:21:34.490Z,9.10
2019-04-14T03:24:17.043Z,5.80
2019-04-14T03:26:56.245Z,9.70
2019-04-14T03:29:46.727Z,6.97
2019-04-14T03:32:42.601Z,5.00
2019-04-14T03:39:46.591Z,6.03
2019-04-14T03:42:19.788Z,9.33
2019-04-14T03:47:21.340Z,7.33
2019-04-14T03:49:45.021Z,7.63
2019-04-14T03:52:22.154Z,8.23
2019-04-14T03:54:44.038Z,5.90
2019-04-14T03:56:55.495Z,9.40
2019-04-14T03:59:24.248Z,11.00
2019-04-14T04:01:52.760Z,14.40
2019-04-14T04:04:22.592Z,6.23
2019-04-14T04:06:51.368Z,6.60
2019-04-14T04:09:21.513Z,5.20
2019-04-14T04:11:50.001Z,5.70
2019-04-14T04:14:18.447Z,6.17
2019-04-14T04:16:48.692Z,7.70
2019-04-14T04:19:25.181Z,5.77
2019-04-14T04:22:13.504Z,8.03
2019-04-14T04:24:43.634Z,8.03
2019-04-14T04:27:30.849Z,7.77
2019-04-14T04:30:01.753Z,4.17
2019-04-14T04:32:34.479Z,13.73
2019-04-14T04:35:13.499Z,9.80
2019-04-14T04:37:52.335Z,8.23
2019-04-14T04:40:22.712Z,12.50
2019-04-14T04:42:51.149Z,6.50
2019-04-14T04:45:19.629Z,12.80
2019-04-14T04:47:49.214Z,7.97
2019-04-14T04:50:17.824Z,10.60
2019-04-14T04:52:47.518Z,9.80
2019-04-14T04:55:16.224Z,12.73
2019-04-14T04:57:45.910Z,7.07
2019-04-14T05:00:15.626Z,10.60
2019-04-14T05:02:44.338Z,11.17
2019-04-14T05:05:49.379Z,9.80
2019-04-14T05:08:17.964Z,9.53
2019-04-14T05:10:50.749Z,19.30
2019-04-14T05:13:20.610Z,12.77
2019-04-14T05:15:51.174Z,11.37
2019-04-14T05:18:20.004Z,11.57
2019-04-14T05:20:48.810Z,10.80
2019-04-14T05:23:17.482Z,10.53
2019-04-14T05:25:47.247Z,11.53
2019-04-14T05:28:15.977Z,9.17
2019-04-14T05:30:45.733Z,12.10
2019-04-14T05:33:14.372Z,10.13
2019-04-14T05:35:42.858Z,16.40
2019-04-14T05:38:12.557Z,13.13
2019-04-14T05:40:41.259Z,11.90
2019-04-14T05:43:09.740Z,18.17
2019-04-14T05:45:39.432Z,7.27
2019-04-14T05:48:08.144Z,9.47
2019-04-14T05:50:37.723Z,15.33
2019-04-14T05:53:06.547Z,16.10
2019-04-14T05:55:35.232Z,17.70
2019-04-14T05:58:03.928Z,9.97
2019-04-14T06:00:34.198Z,14.60
2019-04-14T06:03:03.814Z,15.53
2019-04-14T06:05:32.442Z,14.70
2019-04-14T06:08:01.031Z,17.27
2019-04-14T06:10:29.475Z,11.73
2019-04-14T06:12:57.999Z,17.50
2019-04-14T06:15:26.472Z,15.53
2019-04-14T06:17:54.966Z,12.70
2019-04-14T06:20:23.452Z,24.97
2019-04-14T06:22:52.040Z,17.20
2019-04-14T06:25:20.517Z,14.17
2019-04-14T06:27:49.008Z,17.47
2019-04-14T06:30:35.712Z,20.87
2019-04-14T06:33:05.832Z,20.63
2019-04-14T06:35:35.987Z,12.90
2019-04-14T06:38:06.184Z,9.20
2019-04-14T06:40:45.321Z,19.07
2019-04-14T06:43:13.809Z,13.20
2019-04-14T06:45:42.287Z,17.83
2019-04-14T06:48:10.768Z,15.87
2019-04-14T06:50:39.354Z,19.03
2019-04-14T06:53:07.836Z,15.40
2019-04-14T06:55:36.321Z,13.47
2019-04-14T06:58:04.907Z,17.80
2019-04-14T07:00:33.393Z,18.70
2019-04-14T07:03:01.876Z,19.37
2019-04-14T07:05:30.459Z,15.53
2019-04-14T07:07:58.945Z,17.90
2019-04-14T07:10:27.430Z,17.17
2019-04-14T07:12:56.014Z,11.13
2019-04-14T07:15:24.446Z,18.07
2019-04-14T07:17:52.982Z,16.00
2019-04-14T07:20:21.566Z,14.77
2019-04-14T07:22:50.008Z,20.13
2019-04-14T07:25:18.544Z,17.73
2019-04-14T07:27:47.004Z,22.20
2019-04-14T07:30:25.744Z,17.67
2019-04-14T07:33:11.981Z,18.77
2019-04-14T07:35:54.162Z,16.83
2019-04-14T07:38:36.663Z,25.40
2019-04-14T07:41:15.491Z,18.97
2019-04-14T07:43:48.579Z,13.00
2019-04-14T07:46:34.575Z,29.83
2019-04-14T07:49:13.505Z,16.00
2019-04-14T07:51:59.802Z,25.30
2019-04-14T07:54:32.694Z,22.20
2019-04-14T07:57:08.549Z,22.77
2019-04-14T07:59:38.777Z,14.97
2019-04-14T08:02:17.819Z,14.23
2019-04-14T08:04:51.407Z,9.40
2019-04-14T08:07:20.405Z,22.87
2019-04-14T08:09:48.889Z,16.60
2019-04-14T08:12:17.369Z,20.33
2019-04-14T08:14:45.852Z,32.33
2019-04-14T08:17:14.338Z,18.20
2019-04-14T08:19:42.927Z,12.87
2019-04-14T08:22:11.407Z,17.00
2019-04-14T08:24:39.893Z,12.60
2019-04-14T08:27:08.479Z,14.87
2019-04-14T08:29:36.968Z,17.97
2019-04-14T08:32:05.448Z,15.43
2019-04-14T08:34:34.238Z,15.70
2019-04-14T08:37:02.823Z,19.60
2019-04-14T08:39:31.306Z,18.07
2019-04-14T08:42:01.535Z,12.17
2019-04-14T08:44:31.660Z,10.40
2019-04-14T08:47:10.588Z,22.67
2019-04-14T08:49:40.710Z,19.37
2019-04-14T08:52:10.840Z,13.70
2019-04-14T08:54:59.994Z,14.87
2019-04-14T08:57:46.607Z,15.00
2019-04-14T09:00:16.839Z,12.00
2019-04-14T09:02:52.687Z,15.80
2019-04-14T09:05:34.889Z,13.40
2019-04-14T09:08:05.019Z,19.27
2019-04-14T09:10:46.913Z,20.10
2019-04-14T09:13:15.599Z,37.13
2019-04-14T09:15:44.084Z,20.43
2019-04-14T09:18:12.670Z,16.30
2019-04-14T09:20:51.682Z,14.30
2019-04-14T09:23:11.380Z,15.40
2019-04-14T09:25:39.964Z,15.80
2019-04-14T09:28:08.551Z,18.40
2019-04-14T09:30:37.035Z,18.03
2019-04-14T09:33:05.628Z,13.10
2019-04-14T09:35:34.310Z,12.87
2019-04-14T09:38:02.793Z,17.37
2019-04-14T09:40:31.379Z,14.67
2019-04-14T09:42:59.865Z,18.47
2019-04-14T09:45:28.351Z,16.60
2019-04-14T09:47:56.932Z,16.67
2019-04-14T09:50:25.416Z,18.20
2019-04-14T09:52:53.902Z,12.70
2019-04-14T09:55:23.633Z,16.80
2019-04-14T09:57:52.146Z,15.27
2019-04-14T10:00:20.685Z,14.77
2019-04-14T10:02:49.148Z,18.97
2019-04-14T10:05:17.590Z,11.47
2019-04-14T10:07:46.132Z,15.03
2019-04-14T10:10:14.820Z,13.67
2019-04-14T10:12:43.308Z,22.60
2019-04-14T10:15:11.798Z,11.23
2019-04-14T10:17:40.378Z,14.70
2019-04-14T10:20:08.997Z,14.50
2019-04-14T10:22:37.550Z,15.40
2019-04-14T10:25:06.136Z,30.03
2019-04-14T10:27:34.619Z,18.37
2019-04-14T10:30:03.735Z,16.43
2019-04-14T10:32:32.303Z,13.57
2019-04-14T10:35:00.789Z,14.50
2019-04-14T10:37:29.268Z,19.17
2019-04-14T10:39:57.857Z,11.33
2019-04-14T10:42:26.345Z,13.40
2019-04-14T10:44:54.825Z,18.53
2019-04-14T10:47:23.412Z,15.33
2019-04-14T10:49:51.854Z,14.37
2019-04-14T10:52:20.381Z,11.83
2019-04-14T10:54:48.871Z,13.57
2019-04-14T10:57:17.344Z,7.60
2019-04-14T10:59:45.824Z,9.60
2019-04-14T11:02:14.415Z,14.07
2019-04-14T11:04:42.898Z,7.70
2019-04-14T11:07:13.020Z,13.20
2019-04-14T11:09:41.506Z,9.13
2019-04-14T11:12:11.953Z,14.03
2019-04-14T11:14:40.397Z,11.97
2019-04-14T11:17:08.999Z,8.63
2019-04-14T11:19:37.495Z,6.77
2019-04-14T11:22:06.894Z,7.17
2019-04-14T11:24:35.487Z,4.07
2019-04-14T11:27:03.966Z,4.13
2019-04-14T11:29:32.810Z,5.20
2019-04-14T11:32:15.201Z,7.20
2019-04-14T11:35:01.774Z,4.73
2019-04-14T11:37:34.655Z,6.80
2019-04-14T11:40:04.779Z,5.27
2019-04-14T11:42:33.268Z,6.53
2019-04-14T11:45:01.883Z,3.47
2019-04-14T11:47:30.336Z,5.67
2019-04-14T11:49:58.819Z,3.80
2019-04-14T11:52:28.931Z,2.80
2019-04-14T11:54:57.429Z,8.00
2019-04-14T11:57:26.115Z,1.57
2019-04-14T11:59:56.234Z,3.30
2019-04-14T12:02:26.314Z,3.33
2019-04-14T12:04:56.409Z,4.03
2019-04-14T12:07:32.131Z,2.90
2019-04-14T12:10:04.714Z,6.73
2019-04-14T12:12:33.157Z,1.90
2019-04-14T12:15:01.783Z,3.00
2019-04-14T12:17:30.264Z,10.77
2019-04-14T12:19:58.750Z,2.70
2019-04-14T12:22:27.544Z,4.73
2019-04-14T12:24:56.022Z,4.33
2019-04-14T12:27:24.465Z,2.43
2019-04-14T12:29:52.983Z,3.07
2019-04-14T12:32:21.581Z,5.30
2019-04-14T12:34:50.060Z,2.00
2019-04-14T12:37:18.547Z,3.23
2019-04-14T12:39:47.039Z,2.10
2019-04-14T12:42:19.611Z,2.37
2019-04-14T12:44:49.724Z,1.27
2019-04-14T12:47:40.118Z,2.80
2019-04-14T12:50:22.966Z,3.50
2019-04-14T12:52:51.637Z,1.90
2019-04-14T12:55:21.757Z,2.03
2019-04-14T12:58:00.494Z,2.20
2019-04-14T13:00:30.712Z,1.50
2019-04-14T13:02:59.192Z,5.87
2019-04-14T13:05:27.777Z,1.40
2019-04-14T13:07:56.262Z,1.87
2019-04-14T13:10:24.847Z,2.70
2019-04-14T13:12:53.434Z,4.60
2019-04-14T13:15:21.950Z,3.03
2019-04-14T13:17:51.273Z,1.30
2019-04-14T13:20:19.807Z,3.23
2019-04-14T13:22:48.241Z,1.80
2019-04-14T13:25:16.773Z,2.40
2019-04-14T13:27:45.357Z,4.90
2019-04-14T13:30:15.481Z,1.50
2019-04-14T13:32:43.963Z,3.20
2019-04-14T13:35:12.555Z,3.10
2019-04-14T13:37:41.039Z,2.97
2019-04-14T13:40:09.525Z,1.40
2019-04-14T13:42:39.126Z,1.50
2019-04-14T13:45:08.025Z,1.63
2019-04-14T13:47:36.506Z,1.50
2019-04-14T13:50:07.756Z,2.90
2019-04-14T13:52:45.968Z,2.57
2019-04-14T13:55:06.468Z,3.37
2019-04-14T13:57:35.049Z,1.77
2019-04-14T14:00:05.595Z,2.00
2019-04-14T14:02:34.065Z,3.37
2019-04-14T14:05:02.655Z,2.30
2019-04-14T14:07:31.155Z,3.50
2019-04-14T14:09:59.620Z,1.70
2019-04-14T14:12:38.752Z,2.93
2019-04-14T14:15:18.294Z,2.13
2019-04-14T14:18:06.642Z,3.93
2019-04-14T14:20:48.649Z,3.23
2019-04-14T14:23:21.237Z,2.43
2019-04-14T14:26:04.148Z,3.13
2019-04-14T14:28:32.734Z,3.37
2019-04-14T14:31:01.222Z,3.20
2019-04-14T14:33:29.705Z,2.17
2019-04-14T14:35:58.287Z,2.63
2019-04-14T14:38:26.775Z,2.80
2019-04-14T14:40:56.798Z,5.03
2019-04-14T14:43:27.127Z,5.40
2019-04-14T14:45:57.246Z,8.07
2019-04-14T14:48:30.181Z,1.73
2019-04-14T14:51:03.013Z,4.67
2019-04-14T14:53:31.496Z,3.50
2019-04-14T14:55:59.981Z,4.07
2019-04-14T14:58:28.489Z,5.00
2019-04-14T15:00:56.952Z,2.73
2019-04-14T15:03:25.540Z,2.47
2019-04-14T15:05:55.249Z,2.10
2019-04-14T15:08:23.739Z,2.53
2019-04-14T15:10:52.316Z,3.17
2019-04-14T15:13:20.844Z,2.53
2019-04-14T15:15:49.406Z,2.83
2019-04-14T15:18:17.984Z,4.07
2019-04-14T15:20:46.868Z,2.33
2019-04-14T15:23:24.772Z,2.03
2019-04-14T15:25:45.515Z,2.80
2019-04-14T15:28:15.744Z,3.77
2019-04-14T15:30:44.488Z,3.07
2019-04-14T15:33:14.612Z,2.77
2019-04-14T15:35:44.221Z,3.30
2019-04-14T15:38:12.704Z,2.73
2019-04-14T15:40:41.187Z,2.13
2019-04-14T15:43:09.685Z,3.23
2019-04-14T15:45:38.168Z,4.77
2019-04-14T15:48:06.648Z,2.37
2019-04-14T15:50:35.229Z,4.93
2019-04-14T15:53:03.676Z,3.57
2019-04-14T15:55:32.191Z,3.53
2019-04-14T15:58:11.604Z,4.47
2019-04-14T16:00:58.287Z,6.70
2019-04-14T16:03:44.750Z,7.10
2019-04-14T16:06:23.790Z,2.67
2019-04-14T16:08:54.006Z,4.10
2019-04-14T16:11:42.152Z,4.63
2019-04-14T16:14:18.276Z,3.43
2019-04-14T16:17:10.200Z,5.30
2019-04-14T16:19:42.512Z,8.07
2019-04-14T16:22:10.955Z,7.40
2019-04-14T16:24:39.485Z,7.20
2019-04-14T16:27:15.608Z,8.00
2019-04-14T16:29:46.520Z,4.03
2019-04-14T16:32:19.583Z,4.70
2019-04-14T16:34:52.388Z,7.10
2019-04-14T16:37:20.833Z,8.67
2019-04-14T16:39:49.300Z,7.57
2019-04-14T16:42:17.930Z,6.67
2019-04-14T16:44:46.407Z,5.00
2019-04-14T16:47:14.851Z,11.27
2019-04-14T16:49:43.374Z,8.20
2019-04-14T16:52:13.457Z,7.93
2019-04-14T16:54:49.555Z,7.00
2019-04-14T16:57:25.412Z,10.40
2019-04-14T16:59:53.898Z,9.00
2019-04-14T17:02:23.405Z,10.30
2019-04-14T17:04:51.892Z,9.47
2019-04-14T17:07:20.413Z,9.37
2019-04-14T17:09:48.859Z,8.83
2019-04-14T17:12:17.805Z,9.47
2019-04-14T17:14:47.899Z,13.90
2019-04-14T17:17:24.073Z,7.73
2019-04-14T17:19:57.419Z,10.67
2019-04-14T17:22:43.736Z,7.10
2019-04-14T17:25:13.858Z,8.10
2019-04-14T17:27:52.888Z,10.63
2019-04-14T17:30:25.485Z,11.27
2019-04-14T17:33:14.356Z,11.80
2019-04-14T17:35:59.512Z,11.23
2019-04-14T17:38:29.745Z,10.70
2019-04-14T17:40:59.857Z,14.10
2019-04-14T17:43:29.973Z,9.87
2019-04-14T17:46:00.201Z,9.83
2019-04-14T17:48:45.379Z,10.27
2019-04-14T17:51:15.599Z,11.97
2019-04-14T17:53:51.567Z,7.70
2019-04-14T17:56:21.579Z,7.43
2019-04-14T17:58:54.471Z,8.57
2019-04-14T18:01:24.696Z,15.33
2019-04-14T18:04:00.856Z,10.77
2019-04-14T18:06:30.949Z,10.00
2019-04-14T18:09:17.788Z,8.77
2019-04-14T18:12:06.040Z,7.77
2019-04-14T18:14:36.263Z,16.73
2019-04-14T18:17:09.966Z,7.50
2019-04-14T18:19:43.066Z,9.93
2019-04-14T18:22:11.544Z,8.67
2019-04-14T18:24:42.723Z,5.67
2019-04-14T18:27:10.462Z,20.50
2019-04-14T18:29:52.969Z,12.93
2019-04-14T18:32:32.334Z,7.43
2019-04-14T18:35:02.542Z,14.07
2019-04-14T18:37:48.937Z,7.33
2019-04-14T18:40:21.832Z,7.80
2019-04-14T18:42:51.918Z,5.73
2019-04-14T18:45:27.781Z,6.23
2019-04-14T18:48:06.518Z,5.50
2019-04-14T18:50:52.361Z,4.27
2019-04-14T18:53:28.416Z,8.50
2019-04-14T18:56:07.614Z,7.37
2019-04-14T19:01:32.587Z,6.23
2019-04-14T19:04:02.482Z,6.07
2019-04-14T19:06:30.997Z,6.30
2019-04-14T19:08:59.467Z,7.30
2019-04-14T19:11:44.721Z,7.53
2019-04-14T19:14:14.822Z,6.00
2019-04-14T19:16:50.669Z,7.43
2019-04-14T19:19:22.469Z,5.23
2019-04-14T19:21:50.912Z,9.30
2019-04-14T19:24:19.405Z,9.63
2019-04-14T19:26:47.998Z,9.63
2019-04-14T19:29:16.478Z,6.47
2019-04-14T19:31:44.961Z,6.13
2019-04-14T19:34:15.096Z,7.33
2019-04-14T19:36:45.922Z,9.33
2019-04-14T19:39:14.667Z,8.40
2019-04-14T19:41:43.306Z,8.77
2019-04-14T19:44:11.787Z,12.70
2019-04-14T19:46:40.267Z,16.53
2019-04-14T19:49:09.783Z,14.63
2019-04-14T19:51:38.263Z,9.43
2019-04-14T19:54:06.749Z,12.97
2019-04-14T19:56:36.047Z,13.63
2019-04-14T19:59:04.633Z,12.17
2019-04-14T20:01:33.581Z,13.30
2019-04-14T20:04:02.214Z,24.73
2019-04-14T20:06:30.698Z,22.60
2019-04-14T20:08:59.185Z,9.30
2019-04-14T20:11:27.766Z,12.93
2019-04-14T20:13:56.227Z,11.23
2019-04-14T20:16:41.840Z,12.30
2019-04-14T20:19:11.922Z,8.77
2019-04-14T20:21:47.825Z,10.33
2019-04-14T20:24:17.938Z,9.60
2019-04-14T20:26:56.667Z,12.17
2019-04-14T20:29:26.886Z,17.53
2019-04-14T20:31:57.003Z,10.03
2019-04-14T20:34:25.598Z,11.73
2019-04-14T20:36:54.068Z,12.57
2019-04-14T20:39:24.199Z,10.70
2019-04-14T20:41:53.025Z,14.87
2019-04-14T20:44:21.541Z,11.43
2019-04-14T20:46:50.331Z,11.10
2019-04-14T20:49:18.959Z,12.27
2019-04-14T20:51:47.442Z,13.93
2019-04-14T20:54:16.044Z,11.03
2019-04-14T20:56:44.581Z,17.53
2019-04-14T20:59:13.053Z,7.57
2019-04-14T21:01:43.176Z,13.97
2019-04-14T21:04:25.484Z,10.10
2019-04-14T21:07:11.711Z,9.83
2019-04-14T21:09:41.854Z,12.77
2019-04-14T21:12:28.358Z,10.43
2019-04-14T21:14:58.482Z,12.53
2019-04-14T21:17:28.598Z,11.27
2019-04-14T21:20:02.979Z,7.63
2019-04-14T21:22:38.879Z,7.10
2019-04-14T21:25:24.259Z,11.70
2019-04-14T21:27:54.701Z,15.08
2019-04-14T21:30:24.807Z,9.53
2019-04-14T21:32:57.796Z,13.23
2019-04-14T21:35:27.918Z,10.73
2019-04-14T21:37:58.038Z,19.10
2019-04-14T21:40:34.315Z,14.73
2019-04-14T21:43:02.769Z,14.93
2019-04-14T21:45:31.862Z,10.23
2019-04-14T21:48:00.347Z,15.70
2019-04-14T21:50:28.854Z,12.17
2019-04-14T21:52:57.350Z,9.53
2019-04-14T21:55:25.924Z,11.23
2019-04-14T21:57:58.947Z,12.37
2019-04-14T22:00:57.749Z,6.00
2019-04-14T22:03:44.323Z,15.00
2019-04-14T22:06:20.311Z,15.80
2019-04-14T22:08:50.630Z,11.10
2019-04-14T22:11:20.828Z,13.70
2019-04-14T22:13:51.173Z,10.70
2019-04-14T22:16:19.640Z,15.13
2019-04-14T22:18:48.229Z,12.93
2019-04-14T22:21:16.715Z,11.47
2019-04-14T22:23:45.194Z,10.77
2019-04-14T22:26:25.529Z,14.73
2019-04-14T22:28:44.013Z,10.73
2019-04-14T22:31:12.455Z,13.10
2019-04-14T22:33:40.902Z,15.27
2019-04-14T22:36:09.557Z,11.57
2019-04-14T22:38:38.043Z,15.40
2019-04-14T22:41:06.483Z,10.43
2019-04-14T22:43:35.113Z,14.00
2019-04-14T22:46:03.699Z,12.20
2019-04-14T22:48:32.141Z,10.20
2019-04-14T22:51:00.668Z,17.20
2019-04-14T22:53:29.150Z,10.57
2019-04-14T22:55:57.738Z,11.53
2019-04-14T22:58:26.430Z,13.37
2019-04-14T23:00:56.534Z,14.00
2019-04-14T23:03:38.781Z,15.57
2019-04-14T23:06:08.863Z,18.70
2019-04-14T23:08:54.053Z,16.20
2019-04-14T23:11:24.278Z,7.57
2019-04-14T23:13:54.356Z,9.13
2019-04-14T23:16:40.836Z,9.83
2019-04-14T23:19:13.893Z,13.93
2019-04-14T23:21:44.020Z,20.30
2019-04-14T23:24:16.902Z,11.67
2019-04-14T23:26:52.525Z,24.53
2019-04-14T23:29:15.543Z,16.87
2019-04-14T23:31:44.011Z,14.70
2019-04-14T23:34:12.452Z,17.63
2019-04-14T23:36:40.896Z,10.83
2019-04-14T23:39:11.025Z,13.50
2019-04-14T23:41:39.564Z,15.70
2019-04-14T23:44:08.047Z,18.17
2019-04-14T23:46:36.635Z,18.77
2019-04-14T23:49:05.223Z,15.93
2019-04-14T23:51:33.710Z,17.10
2019-04-14T23:54:02.331Z,11.93
2019-04-14T23:56:30.777Z,13.50
2019-04-14T23:58:59.258Z,10.50
